Time;durP1;ratioP1;P1;durP2;ratioP2;P2;SDS_P1;SDS_P2;PMS_P1;PMS_P2;Temp;Humidity;BMP_temperature;BMP_pressure;BME280_temperature;BME280_humidity;BME280_pressure;Samples;Min_cycle;Max_cycle;Signal;HPM_P1;HPM_P2
2023/02/07 00:00:04;;;;;;;5.28;4.13;;;3.30;99.90;;;;;;5017701;28;20206;-73
2023/02/07 00:02:50;;;;;;;5.78;3.85;;;3.30;99.90;;;;;;5020103;28;20213;-73
2023/02/07 00:05:37;;;;;;;4.40;3.72;;;3.30;99.90;;;;;;5021959;28;20206;-73
2023/02/07 00:08:23;;;;;;;5.35;4.40;;;3.20;99.90;;;;;;5029067;28;20202;-72
2023/02/07 00:11:11;;;;;;;5.13;3.90;;;3.30;99.90;;;;;;5022808;28;20321;-73
2023/02/07 00:13:58;;;;;;;6.63;4.57;;;3.30;99.90;;;;;;5025256;28;20229;-73
2023/02/07 00:16:44;;;;;;;4.50;4.05;;;3.20;99.90;;;;;;5029951;28;20209;-73
2023/02/07 00:19:30;;;;;;;7.50;4.60;;;3.10;99.90;;;;;;5020554;28;20213;-73
2023/02/07 00:22:17;;;;;;;7.40;4.25;;;3.10;99.90;;;;;;5032032;28;20206;-73
2023/02/07 00:25:02;;;;;;;6.50;5.28;;;3.00;99.90;;;;;;5024820;28;20208;-73
2023/02/07 00:27:48;;;;;;;6.20;4.68;;;3.00;99.90;;;;;;5031881;28;20196;-73
2023/02/07 00:30:33;;;;;;;5.18;4.30;;;3.10;99.90;;;;;;5013655;28;20589;-73
2023/02/07 00:33:19;;;;;;;5.20;4.50;;;3.10;99.90;;;;;;5028923;28;20321;-73
2023/02/07 00:36:07;;;;;;;6.55;4.80;;;3.00;99.90;;;;;;5021392;28;20221;-73
2023/02/07 00:38:56;;;;;;;6.60;5.53;;;3.10;99.90;;;;;;5025914;28;20319;-73
2023/02/07 00:41:42;;;;;;;5.13;4.50;;;3.10;99.90;;;;;;5022805;28;20230;-73
2023/02/07 00:44:27;;;;;;;5.63;4.50;;;3.20;99.90;;;;;;5011462;28;20206;-73
2023/02/07 00:47:13;;;;;;;5.97;4.85;;;3.20;99.90;;;;;;5022729;28;20217;-73
2023/02/07 00:49:59;;;;;;;8.50;4.90;;;3.20;99.90;;;;;;5025296;28;20213;-73
2023/02/07 00:52:44;;;;;;;6.00;4.85;;;3.30;99.90;;;;;;5029666;28;20205;-73
2023/02/07 00:55:32;;;;;;;5.88;4.78;;;3.30;99.90;;;;;;5020101;28;20344;-73
2023/02/07 00:58:17;;;;;;;6.72;4.95;;;3.30;99.90;;;;;;5021979;28;20221;-73
2023/02/07 01:01:05;;;;;;;7.22;4.90;;;3.30;99.90;;;;;;5024842;28;20225;-73
2023/02/07 01:03:50;;;;;;;5.40;4.22;;;3.40;99.90;;;;;;5012663;28;20229;-73
2023/02/07 01:06:36;;;;;;;5.00;4.50;;;3.40;99.90;;;;;;5017553;28;20202;-73
2023/02/07 01:09:21;;;;;;;10.15;4.50;;;3.40;99.90;;;;;;5024440;28;20205;-73
2023/02/07 01:12:08;;;;;;;6.10;4.88;;;3.50;99.90;;;;;;5019036;28;20837;-73
2023/02/07 01:14:54;;;;;;;6.30;4.82;;;3.50;99.90;;;;;;5023107;28;20209;-73
2023/02/07 01:17:40;;;;;;;6.10;4.90;;;3.50;99.90;;;;;;5013537;28;20241;-73
2023/02/07 01:20:26;;;;;;;7.85;5.50;;;3.50;99.90;;;;;;5028203;28;20315;-73
2023/02/07 01:23:13;;;;;;;4.88;4.32;;;3.50;99.90;;;;;;5016790;28;20201;-73
2023/02/07 01:25:59;;;;;;;5.97;5.10;;;3.30;99.90;;;;;;5018548;28;20206;-73
2023/02/07 01:28:46;;;;;;;5.57;4.88;;;3.20;99.90;;;;;;5025545;28;20699;-73
2023/02/07 01:31:31;;;;;;;6.40;4.95;;;3.20;99.90;;;;;;5027466;28;20233;-73
2023/02/07 01:34:17;;;;;;;6.75;4.20;;;3.20;99.90;;;;;;5036097;28;20202;-73
2023/02/07 01:37:03;;;;;;;5.25;4.55;;;3.20;99.90;;;;;;5029526;28;20268;-73
2023/02/07 01:39:49;;;;;;;6.28;4.07;;;3.20;99.90;;;;;;5029022;28;20268;-73
2023/02/07 01:42:34;;;;;;;8.85;5.53;;;3.20;99.90;;;;;;5021095;28;20258;-73
2023/02/07 01:45:28;;;;;;;5.55;4.43;;;3.20;99.90;;;;;;5032582;28;20201;-73
2023/02/07 01:48:18;;;;;;;5.25;4.32;;;3.20;99.90;;;;;;5030810;28;20197;-73
2023/02/07 01:51:07;;;;;;;7.70;5.28;;;3.20;99.90;;;;;;5020129;28;20225;-73
2023/02/07 01:53:56;;;;;;;7.80;5.50;;;3.20;99.60;;;;;;5024045;28;20205;-73
2023/02/07 01:56:46;;;;;;;8.52;5.32;;;3.10;98.70;;;;;;5035189;28;20294;-73
2023/02/07 01:59:33;;;;;;;6.65;5.40;;;3.20;98.00;;;;;;5029711;28;20432;-73
2023/02/07 02:02:23;;;;;;;5.28;4.43;;;3.20;97.20;;;;;;5019389;28;20213;-73
2023/02/07 02:05:10;;;;;;;8.98;6.15;;;3.10;96.00;;;;;;5030359;28;20205;-73
2023/02/07 02:07:55;;;;;;;6.55;5.40;;;3.10;95.30;;;;;;5024369;28;20270;-73
2023/02/07 02:11:20;;;;;;;8.20;6.15;;;3.00;95.30;;;;;;5029205;28;20233;-73
2023/02/07 02:14:11;;;;;;;7.80;6.10;;;3.00;95.10;;;;;;5028194;28;20699;-73
2023/02/07 02:17:06;;;;;;;8.05;6.30;;;3.00;93.20;;;;;;5030432;28;20205;-73
2023/02/07 02:20:37;;;;;;;9.93;6.30;;;3.00;91.50;;;;;;5021758;28;20225;-73
2023/02/07 02:23:34;;;;;;;10.57;6.72;;;3.00;91.60;;;;;;5030052;28;20244;-73
2023/02/07 02:26:54;;;;;;;9.10;6.22;;;2.80;91.00;;;;;;5024001;28;20206;-73
2023/02/07 02:30:19;;;;;;;9.43;7.03;;;2.80;90.30;;;;;;5029798;28;20202;-73
2023/02/07 02:33:24;;;;;;;10.38;7.03;;;2.80;91.10;;;;;;5030285;28;20338;-73
2023/02/07 02:36:19;;;;;;;9.68;6.90;;;2.80;90.60;;;;;;5022035;28;20332;-72
2023/02/07 02:39:13;;;;;;;9.85;7.43;;;2.70;91.00;;;;;;5026541;28;20237;-73
2023/02/07 02:42:04;;;;;;;9.48;6.68;;;2.70;91.60;;;;;;5020919;28;20232;-73
2023/02/07 02:44:55;;;;;;;9.10;6.13;;;2.80;91.60;;;;;;5023782;28;20573;-73
2023/02/07 02:47:46;;;;;;;7.70;6.47;;;2.80;92.20;;;;;;5025218;28;20214;-73
2023/02/07 02:50:35;;;;;;;11.00;7.72;;;2.70;92.00;;;;;;5027389;28;20226;-73
2023/02/07 02:53:21;;;;;;;17.88;8.25;;;2.50;93.50;;;;;;5016311;28;20238;-73
2023/02/07 02:56:42;;;;;;;11.13;8.10;;;2.40;93.30;;;;;;5020195;28;20206;-73
2023/02/07 02:59:57;;;;;;;11.00;7.82;;;2.40;91.80;;;;;;5021349;28;20226;-73
2023/02/07 03:02:55;;;;;;;11.23;7.50;;;2.30;92.50;;;;;;5018206;28;20209;-73
2023/02/07 03:05:52;;;;;;;14.27;7.82;;;2.30;92.20;;;;;;5023526;28;20253;-73
2023/02/07 03:08:45;;;;;;;16.23;9.45;;;2.40;91.90;;;;;;5022039;28;20206;-73
2023/02/07 03:11:35;;;;;;;11.32;8.85;;;2.30;91.70;;;;;;5022809;28;20230;-73
2023/02/07 03:14:30;;;;;;;12.23;8.98;;;2.10;92.90;;;;;;5026541;28;20218;-73
2023/02/07 03:17:24;;;;;;;11.90;8.20;;;2.10;93.30;;;;;;5015596;28;20206;-73
2023/02/07 03:20:18;;;;;;;10.73;8.10;;;2.10;94.10;;;;;;5027753;28;20228;-73
2023/02/07 03:23:07;;;;;;;12.45;8.70;;;2.10;94.60;;;;;;5020162;28;20260;-73
2023/02/07 03:25:55;;;;;;;13.07;9.82;;;2.00;94.20;;;;;;5021487;28;20198;-72
2023/02/07 03:28:42;;;;;;;11.65;8.40;;;1.90;94.00;;;;;;5017829;28;20212;-73
2023/02/07 03:31:31;;;;;;;9.65;7.60;;;1.80;94.70;;;;;;5020626;28;20372;-73
2023/02/07 03:34:22;;;;;;;11.65;7.60;;;1.80;94.70;;;;;;5026396;28;20210;-73
2023/02/07 03:37:14;;;;;;;11.52;8.60;;;1.80;96.20;;;;;;5029106;28;20336;-73
2023/02/07 03:40:01;;;;;;;12.60;8.65;;;1.80;95.80;;;;;;5021600;28;20238;-73
2023/02/07 03:42:50;;;;;;;15.65;9.63;;;1.90;95.60;;;;;;5029685;28;20328;-73
2023/02/07 03:45:36;;;;;;;16.25;9.55;;;1.80;95.50;;;;;;5019708;28;20218;-72
2023/02/07 03:48:22;;;;;;;14.98;10.02;;;1.90;96.10;;;;;;5021585;28;20202;-73
2023/02/07 03:51:08;;;;;;;18.67;10.68;;;1.80;96.00;;;;;;5020320;28;20233;-73
2023/02/07 03:53:53;;;;;;;18.60;10.45;;;1.80;96.90;;;;;;5023003;28;20206;-73
2023/02/07 03:56:40;;;;;;;13.35;9.70;;;1.80;94.70;;;;;;5014278;28;20217;-73
2023/02/07 03:59:27;;;;;;;14.00;10.63;;;1.80;96.10;;;;;;5023062;28;20237;-73
2023/02/07 04:02:12;;;;;;;11.60;8.98;;;1.80;96.70;;;;;;5023106;28;20738;-73
2023/02/07 04:04:58;;;;;;;15.70;10.30;;;1.70;97.40;;;;;;5028917;28;20337;-73
2023/02/07 04:07:43;;;;;;;15.02;9.88;;;1.80;97.50;;;;;;5020880;28;20575;-73
2023/02/07 04:10:29;;;;;;;18.17;9.63;;;1.60;97.90;;;;;;5023179;28;20225;-73
2023/02/07 04:13:16;;;;;;;17.70;11.27;;;1.30;99.80;;;;;;5027333;28;20201;-73
2023/02/07 04:16:01;;;;;;;12.50;10.80;;;1.30;99.90;;;;;;5032909;28;20201;-73
2023/02/07 04:18:47;;;;;;;13.80;10.30;;;1.20;99.90;;;;;;5019288;28;20261;-73
2023/02/07 04:21:33;;;;;;;15.10;10.68;;;1.20;99.90;;;;;;5032828;28;20594;-73
2023/02/07 04:24:19;;;;;;;13.65;10.20;;;1.10;99.90;;;;;;5031329;28;20313;-73
2023/02/07 04:27:05;;;;;;;15.30;10.73;;;1.20;99.90;;;;;;5035522;28;20244;-73
2023/02/07 04:29:51;;;;;;;15.60;10.32;;;1.30;99.90;;;;;;5025810;28;20220;-73
2023/02/07 04:32:37;;;;;;;17.05;11.10;;;1.30;99.90;;;;;;5020330;28;20275;-73
2023/02/07 04:35:23;;;;;;;16.23;11.20;;;1.20;99.90;;;;;;5032196;28;20225;-73
2023/02/07 04:38:08;;;;;;;13.13;9.82;;;1.20;99.90;;;;;;5026121;28;20264;-73
2023/02/07 04:40:58;;;;;;;30.80;11.38;;;1.10;99.90;;;;;;5022324;28;20229;-73
2023/02/07 04:43:44;;;;;;;18.33;10.50;;;1.00;99.90;;;;;;5025664;28;20205;-73
2023/02/07 04:46:31;;;;;;;13.07;10.40;;;1.10;99.90;;;;;;5028073;28;20209;-73
2023/02/07 04:49:17;;;;;;;13.25;10.45;;;1.00;99.90;;;;;;5022782;28;20205;-73
2023/02/07 04:52:02;;;;;;;13.73;10.70;;;1.00;99.90;;;;;;5025198;28;20225;-73
2023/02/07 04:54:48;;;;;;;17.17;12.23;;;0.90;99.90;;;;;;5022395;28;20210;-73
2023/02/07 04:57:33;;;;;;;15.10;10.50;;;0.90;99.90;;;;;;5030729;28;20209;-73
2023/02/07 05:00:19;;;;;;;16.38;11.57;;;1.00;99.90;;;;;;5028057;28;20356;-73
2023/02/07 05:03:06;;;;;;;17.13;12.00;;;1.00;99.90;;;;;;5018154;28;20264;-73
2023/02/07 05:05:54;;;;;;;17.85;12.35;;;0.90;99.90;;;;;;5018415;28;20564;-72
2023/02/07 05:08:39;;;;;;;15.30;11.88;;;0.90;99.90;;;;;;5019428;28;20259;-73
2023/02/07 05:11:25;;;;;;;13.80;10.80;;;0.90;99.90;;;;;;5021098;28;20284;-73
2023/02/07 05:14:11;;;;;;;16.45;11.48;;;0.90;99.90;;;;;;5029612;28;20204;-73
2023/02/07 05:16:56;;;;;;;18.85;11.48;;;0.90;99.90;;;;;;5030249;28;20205;-72
2023/02/07 05:19:44;;;;;;;17.75;11.23;;;0.70;99.90;;;;;;5020843;28;20695;-73
2023/02/07 05:22:29;;;;;;;19.15;11.68;;;0.70;99.90;;;;;;5022436;28;20213;-73
2023/02/07 05:25:15;;;;;;;15.20;10.77;;;0.70;99.90;;;;;;5012741;28;20198;-73
2023/02/07 05:28:01;;;;;;;15.63;11.25;;;0.80;99.90;;;;;;5031003;28;20201;-73
2023/02/07 05:30:46;;;;;;;17.80;10.75;;;0.90;99.90;;;;;;5019784;28;20229;-73
2023/02/07 05:33:31;;;;;;;15.82;10.95;;;0.90;99.90;;;;;;5018444;28;20198;-73
2023/02/07 05:36:18;;;;;;;15.23;10.82;;;0.90;99.90;;;;;;5013767;28;20256;-73
2023/02/07 05:39:04;;;;;;;13.35;9.90;;;0.90;99.90;;;;;;5014859;28;20207;-73
2023/02/07 05:41:50;;;;;;;15.75;10.00;;;0.90;99.90;;;;;;5018128;28;20217;-72
2023/02/07 05:44:35;;;;;;;14.30;11.90;;;0.80;99.90;;;;;;5018152;28;20205;-73
2023/02/07 05:47:21;;;;;;;16.33;12.45;;;0.70;99.90;;;;;;5027295;28;20799;-73
2023/02/07 05:50:07;;;;;;;16.52;12.80;;;0.70;99.90;;;;;;5018572;28;20253;-73
2023/02/07 05:52:54;;;;;;;15.95;11.05;;;0.50;99.90;;;;;;5025723;28;20701;-72
2023/02/07 05:55:39;;;;;;;21.77;11.75;;;0.50;99.90;;;;;;5020637;28;20205;-72
2023/02/07 05:58:25;;;;;;;17.20;11.80;;;0.60;99.90;;;;;;5018958;28;20694;-73
2023/02/07 06:01:10;;;;;;;14.75;10.10;;;0.40;99.90;;;;;;5021593;28;20237;-73
2023/02/07 06:03:56;;;;;;;13.90;10.88;;;0.30;99.90;;;;;;5028065;28;20609;-72
2023/02/07 06:06:42;;;;;;;15.90;11.35;;;0.20;99.90;;;;;;5021099;28;20326;-73
2023/02/07 06:09:29;;;;;;;16.83;11.77;;;0.30;99.90;;;;;;5020693;28;20567;-72
2023/02/07 06:12:14;;;;;;;18.50;11.82;;;0.10;99.90;;;;;;5023906;28;20683;-72
2023/02/07 06:15:00;;;;;;;16.48;12.20;;;0.10;99.90;;;;;;5032983;28;20264;-73
2023/02/07 06:17:47;;;;;;;17.75;11.75;;;0.20;99.90;;;;;;5032775;28;20264;-73
2023/02/07 06:20:32;;;;;;;15.60;11.80;;;0.20;99.90;;;;;;5032224;28;20241;-73
2023/02/07 06:23:19;;;;;;;13.57;10.48;;;0.30;99.90;;;;;;5034699;28;20208;-72
2023/02/07 06:26:06;;;;;;;18.70;11.43;;;0.20;99.90;;;;;;5036016;28;20214;-73
2023/02/07 06:28:52;;;;;;;17.98;12.73;;;0.10;99.90;;;;;;5023585;28;20226;-72
2023/02/07 06:31:38;;;;;;;16.80;11.82;;;0.10;99.90;;;;;;5024333;28;20242;-73
2023/02/07 06:34:24;;;;;;;16.35;12.43;;;0.10;99.90;;;;;;5027607;28;20252;-73
2023/02/07 06:37:09;;;;;;;15.50;12.05;;;0.20;99.90;;;;;;5034378;28;20202;-73
2023/02/07 06:39:55;;;;;;;19.58;12.30;;;0.30;99.90;;;;;;5026120;28;20678;-72
2023/02/07 06:42:44;;;;;;;14.65;11.90;;;0.10;99.90;;;;;;5032154;28;20295;-73
2023/02/07 06:45:29;;;;;;;17.88;12.13;;;0.10;99.90;;;;;;5025749;28;20210;-73
2023/02/07 06:48:15;;;;;;;18.92;12.20;;;-0.10;99.90;;;;;;5026479;28;20337;-72
2023/02/07 06:51:01;;;;;;;17.75;11.88;;;-0.10;99.90;;;;;;5026417;28;20730;-74
2023/02/07 06:53:47;;;;;;;16.05;12.10;;;-0.10;99.90;;;;;;5029983;28;20202;-73
2023/02/07 06:56:32;;;;;;;16.90;11.40;;;0.10;99.90;;;;;;5030609;28;20308;-73
2023/02/07 06:59:20;;;;;;;17.52;12.90;;;0.20;99.90;;;;;;5020560;28;20197;-74
2023/02/07 07:02:05;;;;;;;17.45;11.82;;;0.10;99.90;;;;;;5029981;28;20482;-74
2023/02/07 07:04:51;;;;;;;15.48;12.90;;;0.20;99.90;;;;;;5027148;28;20202;-74
2023/02/07 07:07:37;;;;;;;18.13;11.27;;;0.10;99.90;;;;;;5022778;28;20210;-74
2023/02/07 07:10:23;;;;;;;23.60;13.02;;;0.10;99.90;;;;;;5017599;28;20217;-74
2023/02/07 07:13:08;;;;;;;16.42;12.57;;;0.20;99.90;;;;;;5024683;28;20337;-74
2023/02/07 07:15:55;;;;;;;16.90;12.90;;;0.10;99.90;;;;;;5030346;28;20197;-74
2023/02/07 07:18:41;;;;;;;18.77;12.25;;;0.20;99.90;;;;;;5027238;28;20257;-73
2023/02/07 07:21:27;;;;;;;16.45;12.38;;;0.30;99.90;;;;;;5024770;28;20727;-74
2023/02/07 07:24:12;;;;;;;16.75;12.90;;;0.30;99.90;;;;;;5029089;28;20202;-75
2023/02/07 07:26:58;;;;;;;14.80;12.15;;;0.40;99.90;;;;;;5020600;28;20205;-74
2023/02/07 07:29:44;;;;;;;19.40;12.77;;;0.20;99.90;;;;;;5020799;28;20209;-73
2023/02/07 07:32:31;;;;;;;15.45;11.70;;;0.20;99.90;;;;;;5034210;28;21035;-74
2023/02/07 07:35:17;;;;;;;15.05;11.45;;;0.30;99.90;;;;;;5027048;28;20622;-74
2023/02/07 07:38:03;;;;;;;24.98;17.27;;;0.30;99.90;;;;;;5022878;28;20217;-73
2023/02/07 07:40:49;;;;;;;21.48;14.85;;;0.20;99.90;;;;;;5026538;28;20784;-72
2023/02/07 07:43:34;;;;;;;21.58;14.05;;;0.10;99.90;;;;;;5029288;28;20202;-74
2023/02/07 07:46:20;;;;;;;20.98;14.00;;;0.20;99.90;;;;;;5017589;28;20217;-73
2023/02/07 07:49:07;;;;;;;20.17;13.77;;;0.30;99.90;;;;;;5026345;28;20201;-73
2023/02/07 07:51:53;;;;;;;24.52;13.30;;;0.40;99.90;;;;;;5025063;28;20217;-73
2023/02/07 07:54:39;;;;;;;22.13;14.65;;;0.50;99.90;;;;;;5024735;28;20210;-73
2023/02/07 07:57:26;;;;;;;22.42;14.43;;;0.60;99.90;;;;;;5024800;28;20309;-74
2023/02/07 08:00:14;;;;;;;18.65;14.25;;;0.70;99.90;;;;;;5024104;28;20715;-72
2023/02/07 08:02:59;;;;;;;15.95;12.77;;;0.60;99.90;;;;;;5024671;28;20348;-72
2023/02/07 08:05:47;;;;;;;20.65;14.30;;;0.80;99.90;;;;;;5027668;28;20201;-72
2023/02/07 08:08:32;;;;;;;20.17;13.82;;;0.90;99.90;;;;;;5018747;28;20210;-72
2023/02/07 08:11:18;;;;;;;21.80;15.20;;;1.00;99.90;;;;;;5025073;28;20225;-71
2023/02/07 08:14:03;;;;;;;20.45;14.00;;;1.00;99.90;;;;;;5015909;28;20651;-72
2023/02/07 08:16:49;;;;;;;20.98;13.43;;;1.10;99.90;;;;;;5022523;28;20197;-73
2023/02/07 08:19:37;;;;;;;20.33;13.75;;;1.10;99.90;;;;;;5020186;28;20201;-74
2023/02/07 08:22:23;;;;;;;15.82;12.23;;;1.20;99.20;;;;;;5029864;28;20209;-74
2023/02/07 08:25:09;;;;;;;25.25;13.90;;;1.30;98.00;;;;;;5028968;28;20205;-74
2023/02/07 08:27:55;;;;;;;20.10;14.00;;;1.30;97.30;;;;;;5026188;28;20206;-73
2023/02/07 08:30:41;;;;;;;19.48;12.48;;;1.30;98.20;;;;;;5030672;28;20230;-74
2023/02/07 08:33:26;;;;;;;17.92;13.52;;;1.40;96.90;;;;;;5025008;28;20323;-73
2023/02/07 08:36:12;;;;;;;20.67;13.55;;;1.50;95.30;;;;;;5019691;28;20260;-74
2023/02/07 08:38:59;;;;;;;21.13;14.07;;;1.50;95.40;;;;;;5025557;28;20210;-73
2023/02/07 08:41:45;;;;;;;19.83;14.10;;;1.50;96.00;;;;;;5029717;28;20220;-73
2023/02/07 08:44:31;;;;;;;17.02;12.98;;;1.50;95.40;;;;;;5021107;28;20332;-73
2023/02/07 08:47:19;;;;;;;23.30;13.70;;;1.50;93.80;;;;;;5030257;28;20205;-74
2023/02/07 08:50:05;;;;;;;19.42;14.25;;;1.50;92.70;;;;;;5022528;28;20200;-74
2023/02/07 08:52:51;;;;;;;21.27;13.93;;;1.40;94.50;;;;;;5032310;28;20256;-73
2023/02/07 08:55:40;;;;;;;20.63;13.40;;;1.50;93.30;;;;;;5030920;28;20671;-73
2023/02/07 08:58:26;;;;;;;17.00;12.30;;;1.60;92.40;;;;;;5028999;28;20224;-73
2023/02/07 09:01:12;;;;;;;18.27;12.75;;;1.70;90.90;;;;;;5028065;28;20246;-73
2023/02/07 09:03:57;;;;;;;18.17;13.00;;;1.90;90.30;;;;;;5020848;28;20268;-73
2023/02/07 09:06:43;;;;;;;21.67;11.50;;;1.90;89.70;;;;;;5030670;28;20201;-73
2023/02/07 09:09:29;;;;;;;21.48;12.60;;;2.10;84.80;;;;;;5028151;28;20233;-73
2023/02/07 09:12:16;;;;;;;17.00;12.32;;;2.20;82.10;;;;;;5029969;28;20317;-73
2023/02/07 09:15:02;;;;;;;16.55;11.43;;;2.30;80.40;;;;;;5026373;28;20272;-73
2023/02/07 09:17:48;;;;;;;17.33;11.60;;;2.40;74.60;;;;;;5032136;28;20280;-73
2023/02/07 09:20:33;;;;;;;23.10;13.00;;;2.50;75.90;;;;;;5022758;28;20226;-73
2023/02/07 09:23:19;;;;;;;21.58;11.70;;;2.60;76.70;;;;;;5027363;28;20209;-73
2023/02/07 09:26:07;;;;;;;16.95;10.05;;;2.70;75.10;;;;;;5031391;28;20641;-73
2023/02/07 09:28:54;;;;;;;23.73;11.57;;;2.80;73.80;;;;;;5020774;28;20216;-73
2023/02/07 09:31:40;;;;;;;19.15;11.60;;;2.80;73.10;;;;;;5027749;28;20287;-73
2023/02/07 09:34:26;;;;;;;14.27;10.30;;;3.00;69.30;;;;;;5028868;28;21182;-73
2023/02/07 09:37:12;;;;;;;18.88;11.30;;;3.20;66.90;;;;;;5028306;28;20621;-73
2023/02/07 09:39:57;;;;;;;18.40;11.88;;;3.20;68.10;;;;;;5026715;28;20279;-73
2023/02/07 09:42:51;;;;;;;16.50;12.15;;;3.30;67.00;;;;;;5031493;28;20410;-73
2023/02/07 09:45:42;;;;;;;17.35;11.88;;;3.50;67.80;;;;;;5019783;28;20206;-73
2023/02/07 09:48:32;;;;;;;16.40;11.25;;;3.60;67.70;;;;;;5018240;28;20288;-73
2023/02/07 09:51:21;;;;;;;16.45;10.98;;;3.80;67.30;;;;;;5035738;28;20225;-73
2023/02/07 09:54:12;;;;;;;11.20;9.52;;;3.90;61.60;;;;;;5035139;28;20209;-73
2023/02/07 09:57:00;;;;;;;17.02;10.80;;;4.00;59.80;;;;;;5035318;28;20565;-73
2023/02/07 09:59:53;;;;;;;14.27;10.38;;;4.10;60.50;;;;;;5029161;28;20209;-73
2023/02/07 10:02:44;;;;;;;13.82;10.70;;;4.20;60.20;;;;;;5033328;28;20217;-73
2023/02/07 10:05:39;;;;;;;18.48;11.93;;;4.50;55.40;;;;;;5034908;28;20209;-73
2023/02/07 10:08:24;;;;;;;18.25;11.02;;;4.70;55.00;;;;;;5020324;28;20213;-73
2023/02/07 10:11:17;;;;;;;17.08;10.27;;;4.80;53.00;;;;;;5035060;28;20271;-73
2023/02/07 10:14:19;;;;;;;14.90;9.10;;;4.90;51.50;;;;;;5028258;28;20201;-73
2023/02/07 10:17:17;;;;;;;18.40;10.90;;;5.10;50.90;;;;;;5037028;28;20329;-73
2023/02/07 10:20:20;;;;;;;13.50;9.77;;;5.20;49.50;;;;;;5033198;28;20209;-73
2023/02/07 10:23:18;;;;;;;16.65;10.40;;;5.40;49.20;;;;;;5030722;28;20658;-73
2023/02/07 10:26:15;;;;;;;16.67;8.95;;;5.40;45.90;;;;;;5034461;28;20321;-73
2023/02/07 10:29:33;;;;;;;12.70;9.60;;;5.50;45.60;;;;;;5024776;28;20209;-73
2023/02/07 10:32:22;;;;;;;13.35;8.73;;;5.50;46.00;;;;;;5033648;28;20264;-73
2023/02/07 10:35:18;;;;;;;13.02;9.02;;;5.70;46.90;;;;;;5030067;28;20202;-73
2023/02/07 10:38:04;;;;;;;13.32;8.73;;;5.90;44.20;;;;;;5019815;28;20209;-73
2023/02/07 10:40:55;;;;;;;16.48;9.93;;;6.10;42.20;;;;;;5034843;28;20245;-73
2023/02/07 10:43:45;;;;;;;14.00;9.27;;;6.30;38.80;;;;;;5025749;28;20249;-73
2023/02/07 10:46:32;;;;;;;12.68;8.60;;;6.40;35.80;;;;;;5034227;28;20722;-73
2023/02/07 10:49:21;;;;;;;13.55;8.95;;;6.40;34.40;;;;;;5026979;28;20206;-73
2023/02/07 10:52:22;;;;;;;12.97;9.50;;;6.60;35.50;;;;;;5034521;28;20715;-73
2023/02/07 10:55:10;;;;;;;13.32;8.68;;;6.60;34.70;;;;;;5025002;28;20425;-73
2023/02/07 10:57:56;;;;;;;12.57;7.30;;;6.70;31.00;;;;;;5015700;28;20202;-73
2023/02/07 11:00:48;;;;;;;12.25;7.75;;;6.90;29.80;;;;;;5029385;28;20970;-73
2023/02/07 11:03:34;;;;;;;17.13;8.63;;;7.10;28.20;;;;;;5021249;28;20208;-73
2023/02/07 11:06:26;;;;;;;12.90;8.77;;;7.20;28.00;;;;;;5031805;28;20432;-73
2023/02/07 11:09:20;;;;;;;10.60;7.27;;;7.20;28.00;;;;;;5028581;28;20457;-73
2023/02/07 11:12:15;;;;;;;10.47;7.70;;;7.60;26.60;;;;;;5029125;28;20441;-73
2023/02/07 11:15:02;;;;;;;10.52;7.80;;;7.70;25.00;;;;;;5025237;28;20447;-73
2023/02/07 11:17:48;;;;;;;11.27;6.70;;;7.60;24.70;;;;;;5025886;28;20243;-74
2023/02/07 11:20:37;;;;;;;9.63;6.97;;;7.50;25.00;;;;;;5030525;28;20534;-74
2023/02/07 11:23:23;;;;;;;12.90;7.68;;;7.70;22.90;;;;;;5033782;28;20580;-73
2023/02/07 11:26:10;;;;;;;9.75;6.70;;;7.70;23.30;;;;;;5021839;28;20206;-73
2023/02/07 11:29:06;;;;;;;11.90;7.10;;;7.60;24.30;;;;;;5027691;28;20202;-73
2023/02/07 11:31:54;;;;;;;10.80;6.70;;;7.40;23.70;;;;;;5027602;28;20448;-73
2023/02/07 11:34:47;;;;;;;8.45;6.45;;;7.40;24.40;;;;;;5023105;28;20568;-74
2023/02/07 11:37:35;;;;;;;12.00;7.53;;;7.40;22.80;;;;;;5029370;28;20283;-73
2023/02/07 11:40:24;;;;;;;8.57;6.13;;;7.50;23.80;;;;;;5030709;28;20253;-72
2023/02/07 11:43:14;;;;;;;10.10;7.13;;;7.40;23.00;;;;;;5032707;28;20457;-73
2023/02/07 11:46:03;;;;;;;13.27;7.93;;;7.30;24.10;;;;;;5021962;28;20429;-73
2023/02/07 11:48:53;;;;;;;8.75;6.45;;;7.30;24.40;;;;;;5014181;28;20321;-73
2023/02/07 11:51:39;;;;;;;10.07;6.53;;;7.10;22.90;;;;;;5032778;28;20221;-73
2023/02/07 11:54:26;;;;;;;10.07;6.93;;;7.00;24.30;;;;;;5032142;28;20432;-73
2023/02/07 11:57:14;;;;;;;11.98;7.22;;;7.10;24.90;;;;;;5028621;28;20209;-73
2023/02/07 12:00:15;;;;;;;10.45;6.47;;;7.20;24.20;;;;;;5032866;28;20675;-73
2023/02/07 12:03:03;;;;;;;11.53;7.40;;;7.30;23.40;;;;;;5027344;28;20228;-73
2023/02/07 12:05:53;;;;;;;8.68;6.43;;;7.50;22.80;;;;;;5022906;28;20503;-73
2023/02/07 12:08:41;;;;;;;16.90;7.70;;;7.40;22.70;;;;;;5028221;28;20687;-74
2023/02/07 12:11:35;;;;;;;10.27;5.70;;;7.30;22.10;;;;;;5028370;28;20225;-73
2023/02/07 12:14:27;;;;;;;9.73;5.90;;;7.30;22.60;;;;;;5030922;28;20433;-74
2023/02/07 12:17:18;;;;;;;9.13;6.10;;;7.10;23.70;;;;;;5015480;28;20447;-73
2023/02/07 12:20:08;;;;;;;9.37;6.67;;;7.10;23.90;;;;;;5029260;28;20440;-74
2023/02/07 12:23:01;;;;;;;13.57;7.50;;;7.20;23.60;;;;;;5022226;28;20447;-73
2023/02/07 12:25:52;;;;;;;11.70;7.30;;;7.30;22.60;;;;;;5030584;28;20558;-73
2023/02/07 12:28:44;;;;;;;10.90;6.70;;;7.50;23.20;;;;;;5030504;28;20432;-73
2023/02/07 12:31:37;;;;;;;12.65;7.30;;;7.70;22.20;;;;;;5022067;28;20445;-74
2023/02/07 12:34:31;;;;;;;11.27;7.13;;;7.80;22.40;;;;;;5020320;28;20205;-73
2023/02/07 12:37:24;;;;;;;7.20;5.30;;;8.00;20.70;;;;;;5025120;28;20202;-73
2023/02/07 12:40:19;;;;;;;9.63;6.40;;;8.20;20.90;;;;;;5029665;28;20445;-73
2023/02/07 12:43:11;;;;;;;10.10;6.67;;;8.40;20.70;;;;;;5031662;28;20476;-73
2023/02/07 12:46:21;;;;;;;9.83;6.30;;;8.50;20.40;;;;;;5029639;28;20801;-73
2023/02/07 12:49:36;;;;;;;9.57;6.53;;;8.70;19.40;;;;;;5029381;28;20598;-74
2023/02/07 12:52:34;;;;;;;9.43;6.60;;;9.00;20.90;;;;;;5024136;28;20429;-73
2023/02/07 12:55:30;;;;;;;9.73;6.47;;;9.20;20.70;;;;;;5019800;28;20427;-74
2023/02/07 12:58:29;;;;;;;11.07;7.13;;;9.50;19.60;;;;;;5018617;28;20816;-74
2023/02/07 13:01:24;;;;;;;10.87;6.70;;;9.70;19.00;;;;;;5025536;28;20427;-74
2023/02/07 13:04:38;;;;;;;10.73;6.17;;;9.90;18.30;;;;;;5012968;28;20963;-74
2023/02/07 13:07:39;;;;;;;12.63;5.83;;;10.30;16.50;;;;;;5024539;28;20442;-72
2023/02/07 13:10:35;;;;;;;13.10;6.27;;;10.70;17.10;;;;;;5020196;28;20519;-73
2023/02/07 13:13:25;;;;;;;10.90;6.60;;;10.80;16.10;;;;;;5024806;28;20444;-72
2023/02/07 13:16:16;;;;;;;8.73;6.47;;;10.90;16.40;;;;;;5017196;28;20879;-73
2023/02/07 13:19:11;;;;;;;11.17;6.80;;;10.80;16.80;;;;;;5028746;28;20947;-74
2023/02/07 13:22:03;;;;;;;10.23;7.00;;;11.00;16.80;;;;;;5023032;28;20522;-74
2023/02/07 13:24:51;;;;;;;8.90;6.67;;;11.10;17.10;;;;;;5018477;28;20403;-73
2023/02/07 13:27:37;;;;;;;10.73;6.90;;;11.50;17.10;;;;;;5022530;28;20600;-74
2023/02/07 13:30:23;;;;;;;13.43;6.87;;;11.50;16.00;;;;;;5030647;28;20831;-74
2023/02/07 13:33:25;;;;;;;9.20;6.30;;;11.70;14.70;;;;;;5025901;28;20793;-74
2023/02/07 13:36:19;;;;;;;11.77;6.47;;;11.80;12.50;;;;;;5014874;28;20427;-74
2023/02/07 13:39:20;;;;;;;9.50;6.40;;;11.60;14.30;;;;;;5025935;28;20477;-74
2023/02/07 13:42:16;;;;;;;10.80;6.63;;;11.70;14.90;;;;;;5019477;28;20477;-74
2023/02/07 13:45:06;;;;;;;8.23;5.70;;;11.70;14.80;;;;;;5023869;28;20429;-74
2023/02/07 13:48:03;;;;;;;8.97;6.17;;;11.70;13.90;;;;;;5015128;28;20440;-74
2023/02/07 13:51:00;;;;;;;8.10;5.63;;;11.50;12.60;;;;;;5016614;28;21038;-74
2023/02/07 13:53:55;;;;;;;8.40;6.43;;;11.90;11.50;;;;;;5013627;28;20441;-74
2023/02/07 14:00:17;;;;;;;13.00;6.17;;;12.50;14.50;;;;;;5020851;28;20483;-74
2023/02/07 14:03:05;;;;;;;9.13;5.57;;;11.90;11.00;;;;;;5021563;28;20997;-74
2023/02/07 14:05:51;;;;;;;10.87;6.00;;;11.90;11.80;;;;;;5014016;28;20456;-74
2023/02/07 14:08:37;;;;;;;7.40;4.53;;;11.70;14.10;;;;;;5016879;28;20560;-74
2023/02/07 14:11:33;;;;;;;6.73;4.20;;;11.90;11.70;;;;;;5018530;28;20593;-74
2023/02/07 14:14:28;;;;;;;8.00;4.47;;;11.90;11.50;;;;;;5020917;28;20502;-74
2023/02/07 14:17:35;;;;;;;6.73;4.30;;;12.40;11.50;;;;;;5020299;28;20497;-74
2023/02/07 14:20:49;;;;;;;8.57;4.70;;;12.30;11.10;;;;;;5019493;28;20506;-74
2023/02/07 14:23:59;;;;;;;5.73;4.43;;;11.40;10.90;;;;;;5025303;28;20506;-74
2023/02/07 14:27:01;;;;;;;10.10;5.70;;;10.90;11.30;;;;;;5021389;28;20954;-74
2023/02/07 14:30:19;;;;;;;11.23;5.67;;;10.40;14.10;;;;;;5022838;28;20497;-74
2023/02/07 14:33:15;;;;;;;8.93;5.60;;;9.50;14.90;;;;;;5014940;28;20441;-73
2023/02/07 14:36:20;;;;;;;7.33;5.30;;;9.00;15.20;;;;;;5021943;28;20427;-74
2023/02/07 14:39:26;;;;;;;6.67;4.90;;;8.60;15.00;;;;;;5025242;28;20444;-74
2023/02/07 14:42:17;;;;;;;8.40;4.80;;;8.10;16.50;;;;;;5022148;28;20492;-74
2023/02/07 14:45:05;;;;;;;9.60;5.43;;;7.70;17.30;;;;;;5027883;28;20440;-74